sensor_id;sensor_type;location;lat;lon;timestamp;P1;durP1;ratioP1;P2;durP2;ratioP2
1545;SDS011;766;51.502;9.752;2023-05-07T00:01:29;27.08;;;19.58;;
1545;SDS011;766;51.502;9.752;2023-05-07T00:03:58;25.23;;;18.38;;
1545;SDS011;766;51.502;9.752;2023-05-07T00:06:27;26.83;;;17.65;;
1545;SDS011;766;51.502;9.752;2023-05-07T00:08:57;28.48;;;19.27;;
1545;SDS011;766;51.502;9.752;2023-05-07T00:11:26;27.40;;;18.95;;
1545;SDS011;766;51.502;9.752;2023-05-07T00:13:55;26.13;;;19.30;;
1545;SDS011;766;51.502;9.752;2023-05-07T00:16:24;30.23;;;19.42;;
1545;SDS011;766;51.502;9.752;2023-05-07T00:18:59;28.05;;;19.63;;
1545;SDS011;766;51.502;9.752;2023-05-07T00:21:27;30.38;;;20.52;;
1545;SDS011;766;51.502;9.752;2023-05-07T00:23:58;29.75;;;19.98;;
1545;SDS011;766;51.502;9.752;2023-05-07T00:26:26;28.25;;;19.80;;
1545;SDS011;766;51.502;9.752;2023-05-07T00:28:55;31.17;;;21.27;;
1545;SDS011;766;51.502;9.752;2023-05-07T00:31:23;29.77;;;20.00;;
1545;SDS011;766;51.502;9.752;2023-05-07T00:33:52;30.33;;;21.77;;
1545;SDS011;766;51.502;9.752;2023-05-07T00:36:21;32.35;;;21.95;;
1545;SDS011;766;51.502;9.752;2023-05-07T00:38:51;31.90;;;21.05;;
1545;SDS011;766;51.502;9.752;2023-05-07T00:41:27;29.38;;;21.60;;
1545;SDS011;766;51.502;9.752;2023-05-07T00:43:57;36.38;;;22.10;;
1545;SDS011;766;51.502;9.752;2023-05-07T00:46:29;33.65;;;22.35;;
1545;SDS011;766;51.502;9.752;2023-05-07T00:48:59;32.17;;;21.80;;
1545;SDS011;766;51.502;9.752;2023-05-07T00:51:28;32.65;;;23.10;;
1545;SDS011;766;51.502;9.752;2023-05-07T00:53:58;27.58;;;20.00;;
1545;SDS011;766;51.502;9.752;2023-05-07T00:56:28;34.08;;;23.30;;
1545;SDS011;766;51.502;9.752;2023-05-07T00:58:57;31.75;;;22.50;;
1545;SDS011;766;51.502;9.752;2023-05-07T01:01:26;34.83;;;22.30;;
1545;SDS011;766;51.502;9.752;2023-05-07T01:03:54;33.47;;;21.48;;
1545;SDS011;766;51.502;9.752;2023-05-07T01:06:23;34.38;;;23.63;;
1545;SDS011;766;51.502;9.752;2023-05-07T01:08:54;37.95;;;24.27;;
1545;SDS011;766;51.502;9.752;2023-05-07T01:11:23;36.05;;;25.50;;
1545;SDS011;766;51.502;9.752;2023-05-07T01:13:53;33.95;;;24.70;;
1545;SDS011;766;51.502;9.752;2023-05-07T01:16:23;35.83;;;23.98;;
1545;SDS011;766;51.502;9.752;2023-05-07T01:18:51;35.15;;;24.35;;
1545;SDS011;766;51.502;9.752;2023-05-07T01:21:20;37.45;;;24.17;;
1545;SDS011;766;51.502;9.752;2023-05-07T01:23:54;39.47;;;25.05;;
1545;SDS011;766;51.502;9.752;2023-05-07T01:26:25;31.33;;;23.10;;
1545;SDS011;766;51.502;9.752;2023-05-07T01:28:53;36.28;;;23.02;;
1545;SDS011;766;51.502;9.752;2023-05-07T01:31:23;38.15;;;23.55;;
1545;SDS011;766;51.502;9.752;2023-05-07T01:33:52;35.80;;;23.58;;
1545;SDS011;766;51.502;9.752;2023-05-07T01:36:21;33.83;;;22.58;;
1545;SDS011;766;51.502;9.752;2023-05-07T01:38:52;37.55;;;22.88;;
1545;SDS011;766;51.502;9.752;2023-05-07T01:41:25;30.65;;;21.90;;
1545;SDS011;766;51.502;9.752;2023-05-07T01:43:54;32.42;;;20.92;;
1545;SDS011;766;51.502;9.752;2023-05-07T01:46:24;28.92;;;20.20;;
1545;SDS011;766;51.502;9.752;2023-05-07T01:48:54;30.35;;;21.15;;
1545;SDS011;766;51.502;9.752;2023-05-07T01:51:22;30.98;;;21.15;;
1545;SDS011;766;51.502;9.752;2023-05-07T01:53:52;30.77;;;21.23;;
1545;SDS011;766;51.502;9.752;2023-05-07T01:56:22;27.88;;;20.20;;
1545;SDS011;766;51.502;9.752;2023-05-07T01:58:51;33.25;;;20.75;;
1545;SDS011;766;51.502;9.752;2023-05-07T02:01:20;29.80;;;20.88;;
1545;SDS011;766;51.502;9.752;2023-05-07T02:03:48;32.55;;;22.17;;
1545;SDS011;766;51.502;9.752;2023-05-07T02:06:17;31.45;;;21.58;;
1545;SDS011;766;51.502;9.752;2023-05-07T02:08:46;31.13;;;20.63;;
1545;SDS011;766;51.502;9.752;2023-05-07T02:11:14;29.40;;;20.63;;
1545;SDS011;766;51.502;9.752;2023-05-07T02:13:44;28.88;;;20.48;;
1545;SDS011;766;51.502;9.752;2023-05-07T02:16:13;30.05;;;21.45;;
1545;SDS011;766;51.502;9.752;2023-05-07T02:18:41;30.42;;;20.58;;
1545;SDS011;766;51.502;9.752;2023-05-07T02:21:10;29.35;;;20.10;;
1545;SDS011;766;51.502;9.752;2023-05-07T02:23:38;28.10;;;20.67;;
1545;SDS011;766;51.502;9.752;2023-05-07T02:26:06;31.65;;;20.17;;
1545;SDS011;766;51.502;9.752;2023-05-07T02:28:35;28.75;;;19.80;;
1545;SDS011;766;51.502;9.752;2023-05-07T02:31:05;28.77;;;20.27;;
1545;SDS011;766;51.502;9.752;2023-05-07T02:33:34;28.30;;;20.10;;
1545;SDS011;766;51.502;9.752;2023-05-07T02:36:06;30.38;;;20.00;;
1545;SDS011;766;51.502;9.752;2023-05-07T02:38:35;28.77;;;20.27;;
1545;SDS011;766;51.502;9.752;2023-05-07T02:41:07;31.27;;;19.73;;
1545;SDS011;766;51.502;9.752;2023-05-07T02:43:35;30.25;;;20.23;;
1545;SDS011;766;51.502;9.752;2023-05-07T02:46:06;30.10;;;19.63;;
1545;SDS011;766;51.502;9.752;2023-05-07T02:48:36;31.83;;;21.90;;
1545;SDS011;766;51.502;9.752;2023-05-07T02:51:04;32.95;;;22.10;;
1545;SDS011;766;51.502;9.752;2023-05-07T02:53:32;30.23;;;20.67;;
1545;SDS011;766;51.502;9.752;2023-05-07T02:56:01;33.88;;;21.42;;
1545;SDS011;766;51.502;9.752;2023-05-07T02:58:30;32.88;;;21.50;;
1545;SDS011;766;51.502;9.752;2023-05-07T03:00:59;34.25;;;22.08;;
1545;SDS011;766;51.502;9.752;2023-05-07T03:03:28;32.25;;;21.80;;
1545;SDS011;766;51.502;9.752;2023-05-07T03:05:58;32.40;;;21.08;;
1545;SDS011;766;51.502;9.752;2023-05-07T03:08:26;30.98;;;20.95;;
1545;SDS011;766;51.502;9.752;2023-05-07T03:10:55;32.10;;;20.85;;
1545;SDS011;766;51.502;9.752;2023-05-07T03:13:23;32.05;;;21.58;;
1545;SDS011;766;51.502;9.752;2023-05-07T03:15:53;30.23;;;21.10;;
1545;SDS011;766;51.502;9.752;2023-05-07T03:18:21;31.77;;;21.65;;
1545;SDS011;766;51.502;9.752;2023-05-07T03:20:52;30.52;;;20.65;;
1545;SDS011;766;51.502;9.752;2023-05-07T03:23:20;32.45;;;20.80;;
1545;SDS011;766;51.502;9.752;2023-05-07T03:25:50;29.73;;;20.27;;
1545;SDS011;766;51.502;9.752;2023-05-07T03:28:19;32.65;;;20.90;;
1545;SDS011;766;51.502;9.752;2023-05-07T03:30:47;29.15;;;20.13;;
1545;SDS011;766;51.502;9.752;2023-05-07T03:33:15;28.90;;;20.30;;
1545;SDS011;766;51.502;9.752;2023-05-07T03:35:44;30.00;;;20.23;;
1545;SDS011;766;51.502;9.752;2023-05-07T03:38:14;32.10;;;21.45;;
1545;SDS011;766;51.502;9.752;2023-05-07T03:40:43;29.08;;;19.98;;
1545;SDS011;766;51.502;9.752;2023-05-07T03:43:11;31.45;;;21.15;;
1545;SDS011;766;51.502;9.752;2023-05-07T03:45:41;33.78;;;21.63;;
1545;SDS011;766;51.502;9.752;2023-05-07T03:48:10;32.35;;;21.45;;
1545;SDS011;766;51.502;9.752;2023-05-07T03:50:38;28.42;;;19.55;;
1545;SDS011;766;51.502;9.752;2023-05-07T03:53:07;31.33;;;20.15;;
1545;SDS011;766;51.502;9.752;2023-05-07T03:55:38;32.63;;;20.95;;
1545;SDS011;766;51.502;9.752;2023-05-07T03:58:06;30.40;;;21.23;;
1545;SDS011;766;51.502;9.752;2023-05-07T04:00:35;30.60;;;20.83;;
1545;SDS011;766;51.502;9.752;2023-05-07T04:03:05;29.48;;;19.48;;
1545;SDS011;766;51.502;9.752;2023-05-07T04:05:34;30.02;;;20.48;;
1545;SDS011;766;51.502;9.752;2023-05-07T04:08:02;29.30;;;20.65;;
1545;SDS011;766;51.502;9.752;2023-05-07T04:10:32;29.60;;;20.63;;
1545;SDS011;766;51.502;9.752;2023-05-07T04:13:04;27.45;;;19.38;;
1545;SDS011;766;51.502;9.752;2023-05-07T04:15:33;31.85;;;19.73;;
1545;SDS011;766;51.502;9.752;2023-05-07T04:18:01;29.40;;;20.65;;
1545;SDS011;766;51.502;9.752;2023-05-07T04:20:29;28.98;;;20.13;;
1545;SDS011;766;51.502;9.752;2023-05-07T04:22:58;30.55;;;20.55;;
1545;SDS011;766;51.502;9.752;2023-05-07T04:25:27;29.50;;;20.90;;
1545;SDS011;766;51.502;9.752;2023-05-07T04:27:55;29.40;;;19.90;;
1545;SDS011;766;51.502;9.752;2023-05-07T04:30:25;30.70;;;21.02;;
1545;SDS011;766;51.502;9.752;2023-05-07T04:32:53;27.67;;;19.58;;
1545;SDS011;766;51.502;9.752;2023-05-07T04:35:22;28.05;;;19.27;;
1545;SDS011;766;51.502;9.752;2023-05-07T04:37:51;30.75;;;20.63;;
1545;SDS011;766;51.502;9.752;2023-05-07T04:40:19;27.65;;;19.63;;
1545;SDS011;766;51.502;9.752;2023-05-07T04:42:47;30.75;;;20.02;;
1545;SDS011;766;51.502;9.752;2023-05-07T04:45:16;28.70;;;19.20;;
1545;SDS011;766;51.502;9.752;2023-05-07T04:47:46;28.52;;;19.33;;
1545;SDS011;766;51.502;9.752;2023-05-07T04:50:14;30.70;;;19.83;;
1545;SDS011;766;51.502;9.752;2023-05-07T04:52:44;32.03;;;19.52;;
1545;SDS011;766;51.502;9.752;2023-05-07T04:55:12;31.42;;;20.25;;
1545;SDS011;766;51.502;9.752;2023-05-07T04:57:43;31.65;;;20.45;;
1545;SDS011;766;51.502;9.752;2023-05-07T05:00:12;28.30;;;19.23;;
1545;SDS011;766;51.502;9.752;2023-05-07T05:02:43;30.20;;;19.63;;
1545;SDS011;766;51.502;9.752;2023-05-07T05:05:12;32.17;;;19.63;;
1545;SDS011;766;51.502;9.752;2023-05-07T05:07:41;31.10;;;19.70;;
1545;SDS011;766;51.502;9.752;2023-05-07T05:10:09;32.65;;;19.33;;
1545;SDS011;766;51.502;9.752;2023-05-07T05:12:38;36.25;;;20.92;;
1545;SDS011;766;51.502;9.752;2023-05-07T05:15:10;33.80;;;20.35;;
1545;SDS011;766;51.502;9.752;2023-05-07T05:17:39;34.47;;;19.58;;
1545;SDS011;766;51.502;9.752;2023-05-07T05:20:07;34.22;;;20.75;;
1545;SDS011;766;51.502;9.752;2023-05-07T05:22:39;35.13;;;20.30;;
1545;SDS011;766;51.502;9.752;2023-05-07T05:25:08;38.40;;;21.83;;
1545;SDS011;766;51.502;9.752;2023-05-07T05:27:38;35.38;;;20.25;;
1545;SDS011;766;51.502;9.752;2023-05-07T05:30:07;36.65;;;20.75;;
1545;SDS011;766;51.502;9.752;2023-05-07T05:32:36;36.67;;;20.35;;
1545;SDS011;766;51.502;9.752;2023-05-07T05:35:05;34.17;;;18.90;;
1545;SDS011;766;51.502;9.752;2023-05-07T05:37:34;36.25;;;19.48;;
1545;SDS011;766;51.502;9.752;2023-05-07T05:40:04;33.65;;;19.45;;
1545;SDS011;766;51.502;9.752;2023-05-07T05:42:33;32.03;;;18.92;;
1545;SDS011;766;51.502;9.752;2023-05-07T05:45:02;30.88;;;18.45;;
1545;SDS011;766;51.502;9.752;2023-05-07T05:47:31;33.35;;;19.80;;
1545;SDS011;766;51.502;9.752;2023-05-07T05:49:59;31.38;;;18.95;;
1545;SDS011;766;51.502;9.752;2023-05-07T05:52:28;32.25;;;19.88;;
1545;SDS011;766;51.502;9.752;2023-05-07T05:54:56;33.15;;;19.98;;
1545;SDS011;766;51.502;9.752;2023-05-07T05:57:26;35.60;;;19.05;;
1545;SDS011;766;51.502;9.752;2023-05-07T05:59:54;30.77;;;18.63;;
1545;SDS011;766;51.502;9.752;2023-05-07T06:02:23;29.35;;;18.88;;
1545;SDS011;766;51.502;9.752;2023-05-07T06:04:52;34.65;;;19.55;;
1545;SDS011;766;51.502;9.752;2023-05-07T06:07:21;31.85;;;18.65;;
1545;SDS011;766;51.502;9.752;2023-05-07T06:09:49;30.73;;;19.02;;
1545;SDS011;766;51.502;9.752;2023-05-07T06:12:18;30.00;;;18.52;;
1545;SDS011;766;51.502;9.752;2023-05-07T06:14:47;28.90;;;18.05;;
1545;SDS011;766;51.502;9.752;2023-05-07T06:17:16;31.35;;;19.33;;
1545;SDS011;766;51.502;9.752;2023-05-07T06:19:47;28.10;;;18.40;;
1545;SDS011;766;51.502;9.752;2023-05-07T06:22:15;25.65;;;17.40;;
1545;SDS011;766;51.502;9.752;2023-05-07T06:24:44;26.48;;;17.02;;
1545;SDS011;766;51.502;9.752;2023-05-07T06:27:12;31.13;;;17.27;;
1545;SDS011;766;51.502;9.752;2023-05-07T06:29:41;27.05;;;17.85;;
1545;SDS011;766;51.502;9.752;2023-05-07T06:32:11;29.30;;;18.02;;
1545;SDS011;766;51.502;9.752;2023-05-07T06:34:41;27.70;;;17.35;;
1545;SDS011;766;51.502;9.752;2023-05-07T06:37:10;30.30;;;17.88;;
1545;SDS011;766;51.502;9.752;2023-05-07T06:39:38;27.60;;;16.98;;
1545;SDS011;766;51.502;9.752;2023-05-07T06:42:06;29.70;;;17.27;;
1545;SDS011;766;51.502;9.752;2023-05-07T06:44:35;29.98;;;17.42;;
1545;SDS011;766;51.502;9.752;2023-05-07T06:47:03;24.02;;;16.60;;
1545;SDS011;766;51.502;9.752;2023-05-07T06:49:33;25.80;;;16.38;;
1545;SDS011;766;51.502;9.752;2023-05-07T06:52:02;24.67;;;15.98;;
1545;SDS011;766;51.502;9.752;2023-05-07T06:54:30;29.40;;;17.23;;
1545;SDS011;766;51.502;9.752;2023-05-07T06:56:59;23.48;;;16.15;;
1545;SDS011;766;51.502;9.752;2023-05-07T06:59:27;22.85;;;15.05;;
1545;SDS011;766;51.502;9.752;2023-05-07T07:01:59;22.65;;;15.52;;
1545;SDS011;766;51.502;9.752;2023-05-07T07:04:28;22.13;;;15.32;;
1545;SDS011;766;51.502;9.752;2023-05-07T07:06:59;23.08;;;16.02;;
1545;SDS011;766;51.502;9.752;2023-05-07T07:09:27;24.67;;;14.98;;
1545;SDS011;766;51.502;9.752;2023-05-07T07:11:57;25.80;;;16.30;;
1545;SDS011;766;51.502;9.752;2023-05-07T07:14:25;21.25;;;14.73;;
1545;SDS011;766;51.502;9.752;2023-05-07T07:16:54;23.10;;;15.40;;
1545;SDS011;766;51.502;9.752;2023-05-07T07:19:22;23.40;;;15.20;;
1545;SDS011;766;51.502;9.752;2023-05-07T07:21:50;22.30;;;14.57;;
1545;SDS011;766;51.502;9.752;2023-05-07T07:24:20;21.75;;;14.75;;
1545;SDS011;766;51.502;9.752;2023-05-07T07:26:48;20.33;;;14.38;;
1545;SDS011;766;51.502;9.752;2023-05-07T07:29:18;22.38;;;14.98;;
1545;SDS011;766;51.502;9.752;2023-05-07T07:31:47;21.58;;;14.18;;
1545;SDS011;766;51.502;9.752;2023-05-07T07:34:15;19.38;;;12.90;;
1545;SDS011;766;51.502;9.752;2023-05-07T07:36:44;20.80;;;13.25;;
1545;SDS011;766;51.502;9.752;2023-05-07T07:39:12;18.77;;;13.73;;
1545;SDS011;766;51.502;9.752;2023-05-07T07:41:42;21.40;;;14.32;;
1545;SDS011;766;51.502;9.752;2023-05-07T07:44:10;20.50;;;12.90;;
1545;SDS011;766;51.502;9.752;2023-05-07T07:46:41;19.50;;;13.50;;
1545;SDS011;766;51.502;9.752;2023-05-07T07:49:10;17.33;;;12.68;;
1545;SDS011;766;51.502;9.752;2023-05-07T07:51:38;16.35;;;11.57;;
1545;SDS011;766;51.502;9.752;2023-05-07T07:54:07;17.98;;;11.70;;
1545;SDS011;766;51.502;9.752;2023-05-07T07:56:35;16.35;;;11.15;;
1545;SDS011;766;51.502;9.752;2023-05-07T07:59:05;17.55;;;11.82;;
1545;SDS011;766;51.502;9.752;2023-05-07T08:01:34;15.68;;;11.52;;
1545;SDS011;766;51.502;9.752;2023-05-07T08:04:04;15.00;;;10.35;;
1545;SDS011;766;51.502;9.752;2023-05-07T08:06:35;14.20;;;9.85;;
1545;SDS011;766;51.502;9.752;2023-05-07T08:09:04;11.93;;;8.80;;
1545;SDS011;766;51.502;9.752;2023-05-07T08:11:32;14.75;;;9.02;;
1545;SDS011;766;51.502;9.752;2023-05-07T08:14:01;12.40;;;9.25;;
1545;SDS011;766;51.502;9.752;2023-05-07T08:16:31;12.20;;;8.43;;
1545;SDS011;766;51.502;9.752;2023-05-07T08:19:02;11.07;;;8.50;;
1545;SDS011;766;51.502;9.752;2023-05-07T08:21:31;10.90;;;8.32;;
1545;SDS011;766;51.502;9.752;2023-05-07T08:24:00;10.13;;;7.28;;
1545;SDS011;766;51.502;9.752;2023-05-07T08:26:28;10.88;;;7.55;;
1545;SDS011;766;51.502;9.752;2023-05-07T08:28:56;10.65;;;7.45;;
1545;SDS011;766;51.502;9.752;2023-05-07T08:31:25;9.63;;;7.22;;
1545;SDS011;766;51.502;9.752;2023-05-07T08:33:56;8.60;;;6.80;;
1545;SDS011;766;51.502;9.752;2023-05-07T08:36:26;8.63;;;7.03;;
1545;SDS011;766;51.502;9.752;2023-05-07T08:38:55;8.50;;;6.47;;
1545;SDS011;766;51.502;9.752;2023-05-07T08:41:23;8.38;;;6.68;;
1545;SDS011;766;51.502;9.752;2023-05-07T08:43:51;10.00;;;6.78;;
1545;SDS011;766;51.502;9.752;2023-05-07T08:46:21;8.50;;;6.70;;
1545;SDS011;766;51.502;9.752;2023-05-07T08:48:50;11.23;;;6.97;;
1545;SDS011;766;51.502;9.752;2023-05-07T08:51:20;9.70;;;6.97;;
1545;SDS011;766;51.502;9.752;2023-05-07T08:53:49;9.25;;;6.55;;
1545;SDS011;766;51.502;9.752;2023-05-07T08:56:18;9.80;;;7.43;;
1545;SDS011;766;51.502;9.752;2023-05-07T08:58:48;10.70;;;6.60;;
1545;SDS011;766;51.502;9.752;2023-05-07T09:01:27;9.05;;;7.13;;
1545;SDS011;766;51.502;9.752;2023-05-07T09:03:57;11.32;;;7.35;;
1545;SDS011;766;51.502;9.752;2023-05-07T09:06:34;12.18;;;7.30;;
1545;SDS011;766;51.502;9.752;2023-05-07T09:09:04;10.38;;;7.47;;
1545;SDS011;766;51.502;9.752;2023-05-07T09:11:33;9.23;;;7.65;;
1545;SDS011;766;51.502;9.752;2023-05-07T09:14:01;10.00;;;6.43;;
1545;SDS011;766;51.502;9.752;2023-05-07T09:16:32;10.18;;;7.65;;
1545;SDS011;766;51.502;9.752;2023-05-07T09:19:00;10.32;;;7.80;;
1545;SDS011;766;51.502;9.752;2023-05-07T09:21:29;9.90;;;7.70;;
1545;SDS011;766;51.502;9.752;2023-05-07T09:23:59;11.07;;;8.00;;
1545;SDS011;766;51.502;9.752;2023-05-07T09:26:28;10.40;;;7.53;;
1545;SDS011;766;51.502;9.752;2023-05-07T09:28:59;11.23;;;7.50;;
1545;SDS011;766;51.502;9.752;2023-05-07T09:31:31;10.48;;;7.57;;
1545;SDS011;766;51.502;9.752;2023-05-07T09:33:59;16.40;;;8.20;;
1545;SDS011;766;51.502;9.752;2023-05-07T09:36:27;9.15;;;7.32;;
1545;SDS011;766;51.502;9.752;2023-05-07T09:38:56;11.70;;;7.63;;
1545;SDS011;766;51.502;9.752;2023-05-07T09:41:30;10.35;;;7.45;;
1545;SDS011;766;51.502;9.752;2023-05-07T09:43:59;9.50;;;7.50;;
1545;SDS011;766;51.502;9.752;2023-05-07T09:46:29;11.63;;;8.77;;
1545;SDS011;766;51.502;9.752;2023-05-07T09:48:58;12.38;;;8.52;;
1545;SDS011;766;51.502;9.752;2023-05-07T09:51:29;13.40;;;9.20;;
1545;SDS011;766;51.502;9.752;2023-05-07T09:54:02;14.18;;;8.18;;
1545;SDS011;766;51.502;9.752;2023-05-07T09:56:32;12.45;;;8.60;;
1545;SDS011;766;51.502;9.752;2023-05-07T09:59:04;12.40;;;8.45;;
1545;SDS011;766;51.502;9.752;2023-05-07T10:01:35;12.20;;;9.63;;
1545;SDS011;766;51.502;9.752;2023-05-07T10:04:04;11.98;;;9.23;;
1545;SDS011;766;51.502;9.752;2023-05-07T10:06:34;11.55;;;9.10;;
1545;SDS011;766;51.502;9.752;2023-05-07T10:09:05;11.32;;;8.68;;
1545;SDS011;766;51.502;9.752;2023-05-07T10:11:34;12.00;;;9.00;;
1545;SDS011;766;51.502;9.752;2023-05-07T10:14:03;13.20;;;8.63;;
1545;SDS011;766;51.502;9.752;2023-05-07T10:16:33;12.38;;;9.18;;
1545;SDS011;766;51.502;9.752;2023-05-07T10:19:03;15.30;;;9.82;;
1545;SDS011;766;51.502;9.752;2023-05-07T10:21:32;14.82;;;10.57;;
1545;SDS011;766;51.502;9.752;2023-05-07T10:24:06;13.73;;;10.65;;
1545;SDS011;766;51.502;9.752;2023-05-07T10:26:40;13.98;;;10.02;;
1545;SDS011;766;51.502;9.752;2023-05-07T10:29:11;14.43;;;10.63;;
1545;SDS011;766;51.502;9.752;2023-05-07T10:31:52;15.30;;;11.60;;
1545;SDS011;766;51.502;9.752;2023-05-07T10:34:26;16.42;;;11.40;;
1545;SDS011;766;51.502;9.752;2023-05-07T10:37:00;15.70;;;11.68;;
1545;SDS011;766;51.502;9.752;2023-05-07T10:39:31;14.93;;;11.35;;
1545;SDS011;766;51.502;9.752;2023-05-07T10:42:07;17.90;;;12.90;;
1545;SDS011;766;51.502;9.752;2023-05-07T10:44:36;15.18;;;11.73;;
1545;SDS011;766;51.502;9.752;2023-05-07T10:47:06;15.95;;;12.50;;
1545;SDS011;766;51.502;9.752;2023-05-07T10:49:36;17.27;;;13.48;;
1545;SDS011;766;51.502;9.752;2023-05-07T10:52:25;19.30;;;14.02;;
1545;SDS011;766;51.502;9.752;2023-05-07T10:57:48;20.40;;;15.00;;
1545;SDS011;766;51.502;9.752;2023-05-07T11:03:11;23.05;;;16.10;;
1545;SDS011;766;51.502;9.752;2023-05-07T11:05:41;24.40;;;17.77;;
1545;SDS011;766;51.502;9.752;2023-05-07T11:08:10;24.70;;;17.80;;
1545;SDS011;766;51.502;9.752;2023-05-07T11:10:49;23.55;;;16.58;;
1545;SDS011;766;51.502;9.752;2023-05-07T11:13:21;24.17;;;17.50;;
1545;SDS011;766;51.502;9.752;2023-05-07T11:16:17;23.52;;;18.08;;
1545;SDS011;766;51.502;9.752;2023-05-07T11:18:46;23.23;;;16.45;;
1545;SDS011;766;51.502;9.752;2023-05-07T11:21:31;24.00;;;18.27;;
1545;SDS011;766;51.502;9.752;2023-05-07T11:24:01;24.20;;;17.10;;
1545;SDS011;766;51.502;9.752;2023-05-07T11:26:40;22.40;;;17.48;;
1545;SDS011;766;51.502;9.752;2023-05-07T11:29:12;23.65;;;17.63;;
1545;SDS011;766;51.502;9.752;2023-05-07T11:31:43;21.60;;;16.70;;
1545;SDS011;766;51.502;9.752;2023-05-07T11:34:16;22.67;;;17.52;;
1545;SDS011;766;51.502;9.752;2023-05-07T11:36:49;21.63;;;17.90;;
1545;SDS011;766;51.502;9.752;2023-05-07T11:39:27;25.42;;;17.90;;
1545;SDS011;766;51.502;9.752;2023-05-07T11:41:58;23.73;;;18.30;;
1545;SDS011;766;51.502;9.752;2023-05-07T11:44:39;24.58;;;17.90;;
1545;SDS011;766;51.502;9.752;2023-05-07T11:47:16;22.15;;;17.15;;
1545;SDS011;766;51.502;9.752;2023-05-07T11:49:46;23.40;;;18.75;;
1545;SDS011;766;51.502;9.752;2023-05-07T11:52:15;25.65;;;18.17;;
1545;SDS011;766;51.502;9.752;2023-05-07T11:54:48;21.67;;;17.30;;
1545;SDS011;766;51.502;9.752;2023-05-07T11:57:18;26.00;;;18.42;;
1545;SDS011;766;51.502;9.752;2023-05-07T11:59:46;27.73;;;18.92;;
1545;SDS011;766;51.502;9.752;2023-05-07T12:02:15;22.23;;;17.20;;
1545;SDS011;766;51.502;9.752;2023-05-07T12:04:44;22.98;;;18.00;;
1545;SDS011;766;51.502;9.752;2023-05-07T12:07:13;26.88;;;18.30;;
1545;SDS011;766;51.502;9.752;2023-05-07T12:09:43;22.60;;;18.15;;
1545;SDS011;766;51.502;9.752;2023-05-07T12:12:11;22.52;;;18.25;;
1545;SDS011;766;51.502;9.752;2023-05-07T12:14:43;21.38;;;16.92;;
1545;SDS011;766;51.502;9.752;2023-05-07T12:17:13;24.20;;;17.85;;
1545;SDS011;766;51.502;9.752;2023-05-07T12:19:43;22.75;;;18.27;;
1545;SDS011;766;51.502;9.752;2023-05-07T12:22:13;22.65;;;18.30;;
1545;SDS011;766;51.502;9.752;2023-05-07T12:24:45;25.15;;;18.48;;
1545;SDS011;766;51.502;9.752;2023-05-07T12:27:14;26.15;;;17.83;;
1545;SDS011;766;51.502;9.752;2023-05-07T12:29:45;22.08;;;17.52;;
1545;SDS011;766;51.502;9.752;2023-05-07T12:32:15;21.55;;;17.42;;
1545;SDS011;766;51.502;9.752;2023-05-07T12:34:44;21.42;;;16.25;;
1545;SDS011;766;51.502;9.752;2023-05-07T12:37:13;21.52;;;16.85;;
1545;SDS011;766;51.502;9.752;2023-05-07T12:39:44;18.67;;;15.80;;
1545;SDS011;766;51.502;9.752;2023-05-07T12:42:15;20.08;;;15.73;;
1545;SDS011;766;51.502;9.752;2023-05-07T12:44:46;21.42;;;17.13;;
1545;SDS011;766;51.502;9.752;2023-05-07T12:47:14;20.73;;;16.75;;
1545;SDS011;766;51.502;9.752;2023-05-07T12:49:43;23.13;;;17.38;;
1545;SDS011;766;51.502;9.752;2023-05-07T12:52:12;23.70;;;17.67;;
1545;SDS011;766;51.502;9.752;2023-05-07T12:54:41;21.40;;;17.75;;
1545;SDS011;766;51.502;9.752;2023-05-07T12:57:09;24.02;;;17.08;;
1545;SDS011;766;51.502;9.752;2023-05-07T12:59:39;23.67;;;18.00;;
1545;SDS011;766;51.502;9.752;2023-05-07T13:02:09;23.23;;;17.38;;
1545;SDS011;766;51.502;9.752;2023-05-07T13:04:38;23.27;;;17.63;;
1545;SDS011;766;51.502;9.752;2023-05-07T13:07:06;19.92;;;15.88;;
1545;SDS011;766;51.502;9.752;2023-05-07T13:09:37;20.55;;;16.30;;
1545;SDS011;766;51.502;9.752;2023-05-07T13:12:05;22.08;;;16.33;;
1545;SDS011;766;51.502;9.752;2023-05-07T13:14:34;23.02;;;17.00;;
1545;SDS011;766;51.502;9.752;2023-05-07T13:17:04;21.15;;;16.17;;
1545;SDS011;766;51.502;9.752;2023-05-07T13:19:33;21.73;;;16.40;;
1545;SDS011;766;51.502;9.752;2023-05-07T13:22:03;18.98;;;15.38;;
1545;SDS011;766;51.502;9.752;2023-05-07T13:24:32;19.60;;;16.15;;
1545;SDS011;766;51.502;9.752;2023-05-07T13:27:01;20.85;;;16.70;;
1545;SDS011;766;51.502;9.752;2023-05-07T13:29:30;19.88;;;16.20;;
1545;SDS011;766;51.502;9.752;2023-05-07T13:31:58;18.50;;;16.27;;
1545;SDS011;766;51.502;9.752;2023-05-07T13:34:27;17.42;;;13.93;;
1545;SDS011;766;51.502;9.752;2023-05-07T13:36:57;16.58;;;14.43;;
1545;SDS011;766;51.502;9.752;2023-05-07T13:39:26;17.70;;;15.50;;
1545;SDS011;766;51.502;9.752;2023-05-07T13:41:54;19.52;;;15.52;;
1545;SDS011;766;51.502;9.752;2023-05-07T13:44:22;19.55;;;15.05;;
1545;SDS011;766;51.502;9.752;2023-05-07T13:46:50;19.55;;;15.75;;
1545;SDS011;766;51.502;9.752;2023-05-07T13:49:19;18.42;;;14.60;;
1545;SDS011;766;51.502;9.752;2023-05-07T13:51:47;18.80;;;15.20;;
1545;SDS011;766;51.502;9.752;2023-05-07T13:54:17;19.73;;;15.35;;
1545;SDS011;766;51.502;9.752;2023-05-07T13:56:45;18.83;;;15.13;;
1545;SDS011;766;51.502;9.752;2023-05-07T13:59:13;19.27;;;14.55;;
1545;SDS011;766;51.502;9.752;2023-05-07T14:01:42;17.83;;;15.43;;
1545;SDS011;766;51.502;9.752;2023-05-07T14:04:10;20.42;;;15.27;;
1545;SDS011;766;51.502;9.752;2023-05-07T14:06:38;19.15;;;15.13;;
1545;SDS011;766;51.502;9.752;2023-05-07T14:09:06;21.67;;;15.98;;
1545;SDS011;766;51.502;9.752;2023-05-07T14:11:37;19.67;;;15.23;;
1545;SDS011;766;51.502;9.752;2023-05-07T14:14:05;20.02;;;14.77;;
1545;SDS011;766;51.502;9.752;2023-05-07T14:16:33;19.48;;;14.13;;
1545;SDS011;766;51.502;9.752;2023-05-07T14:19:02;18.58;;;15.05;;
1545;SDS011;766;51.502;9.752;2023-05-07T14:21:30;18.83;;;15.23;;
1545;SDS011;766;51.502;9.752;2023-05-07T14:23:58;17.05;;;13.57;;
1545;SDS011;766;51.502;9.752;2023-05-07T14:26:27;16.48;;;13.57;;
1545;SDS011;766;51.502;9.752;2023-05-07T14:28:57;15.70;;;12.95;;
1545;SDS011;766;51.502;9.752;2023-05-07T14:31:29;18.88;;;12.98;;
1545;SDS011;766;51.502;9.752;2023-05-07T14:33:57;15.18;;;12.63;;
1545;SDS011;766;51.502;9.752;2023-05-07T14:36:26;15.13;;;12.15;;
1545;SDS011;766;51.502;9.752;2023-05-07T14:38:54;12.88;;;11.32;;
1545;SDS011;766;51.502;9.752;2023-05-07T14:41:25;16.30;;;12.05;;
1545;SDS011;766;51.502;9.752;2023-05-07T14:43:53;14.27;;;12.27;;
1545;SDS011;766;51.502;9.752;2023-05-07T14:46:23;13.00;;;11.60;;
1545;SDS011;766;51.502;9.752;2023-05-07T14:48:52;18.98;;;13.45;;
1545;SDS011;766;51.502;9.752;2023-05-07T14:51:21;14.50;;;12.50;;
1545;SDS011;766;51.502;9.752;2023-05-07T14:53:50;16.77;;;14.13;;
1545;SDS011;766;51.502;9.752;2023-05-07T14:56:18;13.25;;;11.85;;
1545;SDS011;766;51.502;9.752;2023-05-07T14:58:47;14.10;;;12.50;;
1545;SDS011;766;51.502;9.752;2023-05-07T15:01:15;14.77;;;12.88;;
1545;SDS011;766;51.502;9.752;2023-05-07T15:03:45;14.32;;;12.25;;
1545;SDS011;766;51.502;9.752;2023-05-07T15:06:14;13.25;;;10.73;;
1545;SDS011;766;51.502;9.752;2023-05-07T15:08:42;13.43;;;10.98;;
1545;SDS011;766;51.502;9.752;2023-05-07T15:11:11;12.43;;;10.95;;
1545;SDS011;766;51.502;9.752;2023-05-07T15:13:39;12.48;;;11.15;;
1545;SDS011;766;51.502;9.752;2023-05-07T15:16:09;12.43;;;10.65;;
1545;SDS011;766;51.502;9.752;2023-05-07T15:18:37;12.48;;;10.57;;
1545;SDS011;766;51.502;9.752;2023-05-07T15:21:07;11.48;;;10.27;;
1545;SDS011;766;51.502;9.752;2023-05-07T15:23:35;13.43;;;11.43;;
1545;SDS011;766;51.502;9.752;2023-05-07T15:26:04;13.20;;;10.93;;